createdAt,value
2019-01-25T00:01:00.668Z,62.67
2019-01-25T00:02:06.906Z,54.33
2019-01-25T00:03:11.714Z,49.90
2019-01-25T00:04:16.351Z,58.83
2019-01-25T00:05:21.049Z,60.10
2019-01-25T00:06:25.688Z,54.45
2019-01-25T00:07:30.424Z,52.25
2019-01-25T00:08:35.068Z,55.88
2019-01-25T00:09:40.651Z,57.35
2019-01-25T00:10:45.298Z,52.55
2019-01-25T00:11:49.974Z,52.33
2019-01-25T00:12:54.625Z,52.03
2019-01-25T00:13:59.222Z,53.05
2019-01-25T00:15:05.314Z,56.95
2019-01-25T00:16:10.116Z,71.20
2019-01-25T00:17:14.817Z,69.22
2019-01-25T00:18:19.606Z,56.20
2019-01-25T00:19:24.206Z,58.58
2019-01-25T00:20:28.955Z,52.93
2019-01-25T00:21:33.531Z,62.88
2019-01-25T00:22:38.207Z,59.38
2019-01-25T00:23:42.822Z,62.80
2019-01-25T00:24:47.512Z,67.97
2019-01-25T00:25:52.164Z,63.40
2019-01-25T00:26:56.814Z,75.42
2019-01-25T00:28:01.430Z,84.28
2019-01-25T00:29:06.176Z,60.78
2019-01-25T00:30:12.460Z,73.30
2019-01-25T00:31:17.327Z,63.30
2019-01-25T00:32:21.930Z,57.30
2019-01-25T00:33:27.130Z,59.08
2019-01-25T00:34:31.746Z,63.80
2019-01-25T00:35:36.423Z,56.60
2019-01-25T00:36:41.065Z,65.52
2019-01-25T00:37:45.846Z,69.62
2019-01-25T00:38:50.445Z,62.05
2019-01-25T00:39:55.073Z,67.42
2019-01-25T00:40:59.791Z,63.42
2019-01-25T00:42:04.599Z,63.45
2019-01-25T00:43:09.456Z,61.15
2019-01-25T00:44:14.155Z,60.88
2019-01-25T00:45:18.956Z,61.60
2019-01-25T00:46:23.659Z,68.40
2019-01-25T00:47:28.647Z,61.15
2019-01-25T00:48:33.372Z,57.50
2019-01-25T00:49:38.081Z,75.03
2019-01-25T00:50:42.766Z,60.67
2019-01-25T00:51:47.364Z,62.78
2019-01-25T00:52:52.098Z,62.93
2019-01-25T00:53:56.810Z,52.43
2019-01-25T00:55:01.400Z,54.88
2019-01-25T00:56:06.667Z,66.28
2019-01-25T00:57:11.270Z,62.05
2019-01-25T00:58:15.921Z,55.45
2019-01-25T00:59:20.602Z,60.90
2019-01-25T01:00:26.208Z,52.55
2019-01-25T01:01:30.973Z,57.62
2019-01-25T01:02:35.674Z,57.15
2019-01-25T01:03:40.286Z,63.20
2019-01-25T01:04:44.985Z,55.45
2019-01-25T01:05:49.562Z,51.20
2019-01-25T01:06:54.309Z,50.80
2019-01-25T01:07:58.898Z,53.25
2019-01-25T01:09:04.810Z,55.90
2019-01-25T01:10:14.181Z,56.75
2019-01-25T01:11:17.271Z,47.50
2019-01-25T01:12:21.924Z,55.50
2019-01-25T01:13:26.606Z,58.25
2019-01-25T01:14:31.178Z,53.68
2019-01-25T01:15:35.783Z,58.13
2019-01-25T01:16:40.509Z,56.77
2019-01-25T01:17:45.314Z,48.38
2019-01-25T01:18:49.971Z,62.93
2019-01-25T01:19:54.702Z,54.77
2019-01-25T01:20:59.263Z,52.83
2019-01-25T01:22:04.158Z,53.58
2019-01-25T01:23:08.821Z,51.68
2019-01-25T01:24:13.430Z,50.90
2019-01-25T01:25:18.198Z,53.52
2019-01-25T01:26:22.819Z,50.58
2019-01-25T01:27:27.459Z,53.23
2019-01-25T01:28:32.038Z,52.70
2019-01-25T01:29:36.671Z,53.38
2019-01-25T01:30:41.283Z,52.25
2019-01-25T01:31:45.987Z,49.45
2019-01-25T01:32:51.447Z,51.65
2019-01-25T01:33:56.186Z,60.28
2019-01-25T01:35:00.906Z,52.67
2019-01-25T01:36:05.615Z,50.48
2019-01-25T01:37:10.231Z,51.10
2019-01-25T01:38:14.864Z,46.63
2019-01-25T01:39:19.474Z,50.10
2019-01-25T01:40:25.491Z,58.58
2019-01-25T01:41:30.115Z,52.13
2019-01-25T01:42:34.718Z,49.80
2019-01-25T01:43:39.309Z,50.33
2019-01-25T01:44:43.984Z,52.23
2019-01-25T01:45:48.601Z,55.88
2019-01-25T01:46:53.270Z,49.08
2019-01-25T01:47:57.874Z,50.48
2019-01-25T01:49:02.447Z,54.15
2019-01-25T01:50:08.872Z,50.10
2019-01-25T01:51:13.513Z,49.08
2019-01-25T01:52:18.232Z,53.02
2019-01-25T01:53:22.909Z,53.00
2019-01-25T01:54:27.502Z,51.37
2019-01-25T01:55:32.147Z,48.35
2019-01-25T01:56:36.748Z,49.83
2019-01-25T01:57:41.539Z,53.92
2019-01-25T01:58:46.106Z,49.33
2019-01-25T01:59:50.739Z,51.35
2019-01-25T02:00:56.378Z,52.93
2019-01-25T02:02:01.087Z,55.75
2019-01-25T02:03:05.808Z,54.40
2019-01-25T02:04:10.515Z,50.23
2019-01-25T02:05:15.495Z,59.88
2019-01-25T02:06:20.109Z,56.40
2019-01-25T02:07:24.916Z,57.88
2019-01-25T02:08:29.482Z,51.63
2019-01-25T02:09:34.230Z,56.88
2019-01-25T02:10:38.800Z,59.05
2019-01-25T02:11:43.560Z,55.08
2019-01-25T02:12:48.356Z,56.85
2019-01-25T02:13:52.979Z,59.00
2019-01-25T02:14:57.602Z,61.85
2019-01-25T02:16:02.211Z,50.63
2019-01-25T02:17:06.827Z,55.25
2019-01-25T02:18:11.551Z,51.00
2019-01-25T02:19:16.158Z,51.08
2019-01-25T02:20:23.225Z,51.60
2019-01-25T02:21:27.859Z,52.90
2019-01-25T02:22:32.523Z,52.35
2019-01-25T02:23:37.226Z,57.38
2019-01-25T02:24:41.895Z,55.10
2019-01-25T02:25:46.572Z,56.05
2019-01-25T02:26:51.183Z,59.23
2019-01-25T02:27:55.899Z,53.35
2019-01-25T02:29:00.517Z,60.05
2019-01-25T02:30:06.513Z,55.05
2019-01-25T02:31:11.230Z,54.25
2019-01-25T02:32:15.841Z,55.52
2019-01-25T02:33:20.548Z,56.60
2019-01-25T02:34:25.164Z,53.10
2019-01-25T02:35:29.832Z,56.30
2019-01-25T02:36:34.550Z,59.50
2019-01-25T02:37:39.186Z,53.17
2019-01-25T02:38:43.834Z,53.73
2019-01-25T02:39:48.479Z,58.05
2019-01-25T02:40:53.077Z,55.25
2019-01-25T02:41:57.790Z,54.40
2019-01-25T02:43:02.378Z,51.95
2019-01-25T02:44:07.041Z,54.85
2019-01-25T02:45:12.300Z,50.55
2019-01-25T02:46:16.962Z,56.60
2019-01-25T02:47:21.607Z,59.05
2019-01-25T02:48:26.219Z,59.35
2019-01-25T02:49:30.940Z,56.55
2019-01-25T02:50:35.711Z,63.63
2019-01-25T02:51:40.339Z,59.93
2019-01-25T02:52:45.035Z,57.83
2019-01-25T02:53:49.755Z,58.00
2019-01-25T02:54:54.446Z,61.08
2019-01-25T02:55:59.123Z,53.90
2019-01-25T02:57:03.784Z,57.78
2019-01-25T02:58:08.427Z,63.40
2019-01-25T02:59:13.034Z,65.32
2019-01-25T03:00:19.593Z,60.50
2019-01-25T03:01:24.291Z,54.93
2019-01-25T03:02:28.922Z,55.30
2019-01-25T03:03:33.546Z,53.05
2019-01-25T03:04:38.124Z,51.00
2019-01-25T03:05:43.811Z,62.98
2019-01-25T03:06:48.410Z,64.10
2019-01-25T03:07:53.251Z,61.02
2019-01-25T03:08:57.899Z,56.50
2019-01-25T03:10:02.494Z,60.52
2019-01-25T03:11:08.086Z,67.80
2019-01-25T03:12:12.775Z,60.73
2019-01-25T03:13:17.359Z,67.85
2019-01-25T03:14:21.990Z,63.15
2019-01-25T03:15:27.066Z,55.60
2019-01-25T03:16:31.684Z,62.45
2019-01-25T03:17:36.261Z,67.15
2019-01-25T03:18:40.879Z,62.03
2019-01-25T03:19:45.523Z,60.73
2019-01-25T03:20:50.197Z,61.33
2019-01-25T03:21:54.771Z,57.10
2019-01-25T03:22:59.408Z,59.55
2019-01-25T03:24:04.270Z,56.80
2019-01-25T03:25:10.906Z,59.90
2019-01-25T03:26:15.739Z,59.83
2019-01-25T03:27:20.392Z,55.23
2019-01-25T03:28:25.046Z,62.35
2019-01-25T03:29:29.640Z,61.50
2019-01-25T03:30:34.431Z,60.63
2019-01-25T03:31:39.047Z,61.10
2019-01-25T03:32:43.742Z,59.73
2019-01-25T03:33:48.322Z,53.87
2019-01-25T03:34:53.074Z,55.20
2019-01-25T03:35:57.699Z,59.75
2019-01-25T03:37:02.307Z,56.37
2019-01-25T03:38:07.269Z,57.38
2019-01-25T03:39:12.149Z,66.25
2019-01-25T03:40:18.951Z,60.50
2019-01-25T03:41:23.756Z,55.95
2019-01-25T03:42:28.419Z,60.00
2019-01-25T03:43:33.492Z,59.38
2019-01-25T03:44:38.127Z,56.92
2019-01-25T03:45:42.763Z,58.00
2019-01-25T03:46:47.429Z,58.65
2019-01-25T03:47:52.210Z,66.55
2019-01-25T03:48:56.845Z,56.90
2019-01-25T03:50:01.558Z,55.88
2019-01-25T03:51:06.404Z,55.75
2019-01-25T03:52:11.038Z,63.48
2019-01-25T03:53:15.638Z,56.25
2019-01-25T03:54:20.215Z,58.65
2019-01-25T03:55:25.030Z,69.40
2019-01-25T03:56:29.735Z,67.87
2019-01-25T03:57:44.687Z,64.97
2019-01-25T03:58:49.270Z,58.60
2019-01-25T03:59:53.918Z,61.92
2019-01-25T04:00:58.541Z,67.10
2019-01-25T04:02:03.216Z,63.98
2019-01-25T04:03:07.991Z,64.80
2019-01-25T04:04:12.670Z,76.22
2019-01-25T04:05:17.574Z,58.48
2019-01-25T04:06:22.282Z,62.50
2019-01-25T04:07:26.871Z,62.55
2019-01-25T04:08:31.510Z,61.55
2019-01-25T04:09:36.122Z,60.15
2019-01-25T04:10:40.715Z,59.53
2019-01-25T04:11:45.355Z,60.90
2019-01-25T04:12:50.121Z,60.38
2019-01-25T04:13:54.743Z,58.98
2019-01-25T04:14:59.320Z,63.02
2019-01-25T04:16:04.589Z,59.25
2019-01-25T04:17:09.275Z,57.83
2019-01-25T04:18:13.863Z,58.63
2019-01-25T04:19:18.468Z,65.70
2019-01-25T04:20:23.606Z,56.37
2019-01-25T04:21:28.325Z,54.40
2019-01-25T04:22:32.974Z,63.30
2019-01-25T04:23:37.715Z,58.85
2019-01-25T04:24:42.422Z,60.15
2019-01-25T04:25:47.006Z,66.45
2019-01-25T04:26:51.680Z,63.48
2019-01-25T04:27:56.281Z,61.85
2019-01-25T04:29:01.288Z,59.95
2019-01-25T04:30:07.937Z,57.95
2019-01-25T04:31:12.538Z,65.05
2019-01-25T04:32:17.417Z,61.85
2019-01-25T04:33:22.124Z,55.95
2019-01-25T04:34:26.729Z,61.08
2019-01-25T04:35:31.358Z,57.85
2019-01-25T04:36:36.043Z,65.17
2019-01-25T04:37:40.767Z,58.30
2019-01-25T04:38:45.938Z,60.10
2019-01-25T04:39:50.566Z,61.88
2019-01-25T04:40:55.273Z,61.25
2019-01-25T04:42:01.171Z,60.70
2019-01-25T04:43:06.020Z,59.67
2019-01-25T04:44:11.036Z,58.17
2019-01-25T04:45:18.892Z,60.83
2019-01-25T04:46:23.522Z,62.50
2019-01-25T04:47:30.511Z,62.30
2019-01-25T04:48:35.627Z,58.52
2019-01-25T04:49:40.771Z,60.65
2019-01-25T04:50:45.558Z,63.08
2019-01-25T04:51:50.333Z,61.37
2019-01-25T04:52:55.427Z,61.42
2019-01-25T04:54:00.054Z,56.10
2019-01-25T04:55:22.302Z,60.35
2019-01-25T04:56:26.952Z,51.55
2019-01-25T04:57:31.567Z,61.42
2019-01-25T04:58:36.330Z,64.58
2019-01-25T04:59:41.558Z,62.33
2019-01-25T05:00:46.525Z,64.72
2019-01-25T05:01:52.211Z,64.55
2019-01-25T05:02:58.614Z,58.28
2019-01-25T05:04:03.810Z,59.15
2019-01-25T05:05:09.567Z,59.53
2019-01-25T05:06:18.378Z,65.70
2019-01-25T05:07:24.287Z,65.03
2019-01-25T05:08:28.958Z,62.83
2019-01-25T05:09:38.355Z,63.28
2019-01-25T05:10:43.391Z,64.42
2019-01-25T05:11:48.102Z,65.10
2019-01-25T05:12:53.489Z,58.40
2019-01-25T05:13:58.245Z,69.72
2019-01-25T05:15:02.847Z,67.82
2019-01-25T05:16:12.473Z,64.10
2019-01-25T05:17:20.964Z,68.28
2019-01-25T05:18:25.666Z,63.90
2019-01-25T05:19:37.925Z,64.37
2019-01-25T05:20:42.950Z,72.08
2019-01-25T05:21:49.088Z,68.70
2019-01-25T05:22:56.428Z,67.78
2019-01-25T05:24:09.135Z,60.92
2019-01-25T05:25:19.185Z,56.18
2019-01-25T05:26:24.499Z,59.63
2019-01-25T05:27:29.688Z,61.63
2019-01-25T05:28:37.571Z,57.53
2019-01-25T05:29:50.854Z,60.95
2019-01-25T05:31:07.078Z,61.10
2019-01-25T05:32:12.049Z,58.55
2019-01-25T05:33:17.906Z,59.25
2019-01-25T05:34:22.631Z,58.90
2019-01-25T05:35:33.949Z,63.60
2019-01-25T05:36:38.884Z,62.43
2019-01-25T05:37:43.531Z,59.98
2019-01-25T05:38:48.693Z,64.37
2019-01-25T05:39:53.393Z,61.80
2019-01-25T05:40:58.065Z,64.87
2019-01-25T05:42:03.116Z,55.00
2019-01-25T05:43:07.767Z,60.12
2019-01-25T05:44:12.424Z,64.87
2019-01-25T05:45:21.669Z,58.20
2019-01-25T05:46:26.862Z,57.20
2019-01-25T05:47:38.950Z,58.40
2019-01-25T05:48:50.663Z,60.70
2019-01-25T05:49:56.219Z,63.75
2019-01-25T05:51:05.574Z,65.17
2019-01-25T05:52:17.187Z,59.58
2019-01-25T05:53:24.289Z,71.40
2019-01-25T05:54:29.250Z,62.17
2019-01-25T05:55:36.194Z,62.27
2019-01-25T05:56:44.207Z,62.03
2019-01-25T05:57:52.758Z,60.03
2019-01-25T05:58:58.091Z,63.58
2019-01-25T06:00:05.870Z,62.43
2019-01-25T06:01:10.681Z,66.07
2019-01-25T06:02:15.884Z,60.67
2019-01-25T06:03:21.289Z,68.15
2019-01-25T06:04:32.867Z,63.33
2019-01-25T06:05:37.668Z,60.28
2019-01-25T06:06:42.335Z,57.80
2019-01-25T06:07:47.101Z,66.67
2019-01-25T06:08:51.866Z,63.10
2019-01-25T06:09:56.530Z,68.35
2019-01-25T06:11:19.699Z,64.75
2019-01-25T06:12:24.364Z,60.88
2019-01-25T06:13:29.173Z,68.22
2019-01-25T06:14:33.903Z,61.63
2019-01-25T06:15:38.770Z,62.23
2019-01-25T06:16:43.519Z,68.20
2019-01-25T06:17:48.341Z,61.53
2019-01-25T06:18:53.359Z,60.90
2019-01-25T06:19:58.195Z,62.15
2019-01-25T06:21:03.171Z,66.53
2019-01-25T06:22:08.067Z,63.90
2019-01-25T06:23:13.282Z,66.55
2019-01-25T06:24:18.342Z,66.25
2019-01-25T06:25:23.128Z,64.87
2019-01-25T06:26:27.816Z,63.95
2019-01-25T06:27:37.339Z,57.35
2019-01-25T06:28:52.910Z,60.63
2019-01-25T06:29:59.294Z,62.62
2019-01-25T06:31:03.983Z,56.05
2019-01-25T06:32:09.325Z,65.10
2019-01-25T06:33:18.352Z,63.25
2019-01-25T06:34:23.378Z,57.75
2019-01-25T06:35:28.414Z,63.10
2019-01-25T06:36:34.667Z,63.15
2019-01-25T06:37:39.352Z,66.42
2019-01-25T06:38:44.184Z,64.53
2019-01-25T06:39:48.851Z,63.38
2019-01-25T06:40:53.539Z,64.67
2019-01-25T06:41:58.864Z,65.17
2019-01-25T06:43:04.323Z,64.07
2019-01-25T06:44:08.978Z,63.35
2019-01-25T06:45:13.772Z,61.58
2019-01-25T06:46:18.348Z,66.30
2019-01-25T06:47:22.997Z,64.90
2019-01-25T06:48:27.777Z,72.53
2019-01-25T06:49:32.446Z,63.28
2019-01-25T06:50:37.130Z,63.42
2019-01-25T06:51:41.767Z,63.25
2019-01-25T06:52:46.476Z,63.33
2019-01-25T06:53:51.205Z,64.80
2019-01-25T06:54:55.821Z,62.45
2019-01-25T06:56:00.471Z,68.33
2019-01-25T06:57:13.888Z,66.15
2019-01-25T06:58:25.161Z,59.98
2019-01-25T06:59:38.542Z,60.20
2019-01-25T07:00:48.675Z,59.48
2019-01-25T07:02:07.383Z,63.17
2019-01-25T07:03:12.238Z,64.07
2019-01-25T07:04:16.966Z,66.55
2019-01-25T07:05:21.944Z,62.78
2019-01-25T07:06:26.762Z,68.35
2019-01-25T07:07:33.219Z,67.17
2019-01-25T07:08:38.738Z,60.98
2019-01-25T07:09:43.917Z,65.00
2019-01-25T07:10:50.763Z,67.32
2019-01-25T07:11:56.504Z,70.45
2019-01-25T07:13:01.178Z,58.48
2019-01-25T07:14:06.137Z,66.37
2019-01-25T07:15:11.614Z,61.13
2019-01-25T07:16:16.316Z,65.70
2019-01-25T07:17:21.735Z,61.23
2019-01-25T07:18:26.685Z,66.53
2019-01-25T07:19:31.324Z,59.00
2019-01-25T07:20:36.982Z,66.72
2019-01-25T07:21:42.972Z,77.50
2019-01-25T07:22:47.741Z,67.53
2019-01-25T07:23:52.672Z,66.28
2019-01-25T07:24:57.564Z,66.25
2019-01-25T07:26:02.698Z,59.42
2019-01-25T07:27:07.433Z,66.90
2019-01-25T07:28:12.526Z,70.17
2019-01-25T07:29:17.785Z,65.32
2019-01-25T07:30:23.001Z,64.58
2019-01-25T07:31:27.797Z,58.85
2019-01-25T07:32:32.404Z,61.28
2019-01-25T07:33:37.158Z,71.07
2019-01-25T07:34:41.848Z,68.90
2019-01-25T07:35:46.776Z,63.05
2019-01-25T07:36:52.326Z,69.17
2019-01-25T07:37:57.092Z,63.78
2019-01-25T07:39:08.345Z,69.53
2019-01-25T07:40:13.220Z,69.95
2019-01-25T07:41:18.365Z,67.67
2019-01-25T07:42:23.103Z,60.17
2019-01-25T07:43:27.900Z,64.67
2019-01-25T07:44:32.584Z,79.90
2019-01-25T07:45:37.273Z,66.62
2019-01-25T07:46:42.966Z,64.95
2019-01-25T07:47:47.770Z,64.97
2019-01-25T07:48:52.668Z,60.00
2019-01-25T07:49:58.495Z,61.90
2019-01-25T07:51:03.160Z,58.38
2019-01-25T07:52:07.980Z,60.83
2019-01-25T07:53:12.743Z,62.98
2019-01-25T07:54:17.468Z,60.12
2019-01-25T07:55:22.190Z,62.73
2019-01-25T07:56:26.820Z,60.98
2019-01-25T07:57:31.511Z,62.78
2019-01-25T07:58:36.309Z,64.20
2019-01-25T07:59:41.301Z,68.57
2019-01-25T08:00:46.242Z,65.55
2019-01-25T08:01:50.815Z,56.48
2019-01-25T08:02:55.693Z,63.15
2019-01-25T08:04:00.407Z,60.80
2019-01-25T08:05:06.091Z,66.57
2019-01-25T08:06:10.772Z,59.23
2019-01-25T08:07:15.533Z,70.20
2019-01-25T08:08:20.301Z,70.70
2019-01-25T08:09:24.912Z,68.02
2019-01-25T08:10:29.537Z,65.37
2019-01-25T08:11:34.177Z,72.25
2019-01-25T08:12:38.924Z,67.67
2019-01-25T08:13:43.572Z,71.02
2019-01-25T08:14:48.255Z,69.50
2019-01-25T08:15:53.024Z,68.97
2019-01-25T08:16:57.635Z,76.45
2019-01-25T08:18:02.354Z,66.25
2019-01-25T08:19:07.030Z,77.37
2019-01-25T08:20:12.209Z,75.67
2019-01-25T08:21:17.014Z,83.05
2019-01-25T08:22:21.722Z,72.97
2019-01-25T08:23:26.350Z,81.17
2019-01-25T08:24:31.137Z,74.97
2019-01-25T08:25:36.353Z,77.35
2019-01-25T08:26:41.046Z,71.00
2019-01-25T08:27:45.703Z,78.97
2019-01-25T08:28:52.530Z,84.65
2019-01-25T08:29:57.147Z,76.17
2019-01-25T08:31:01.911Z,72.67
2019-01-25T08:32:06.570Z,76.40
2019-01-25T08:33:11.289Z,69.97
2019-01-25T08:34:15.952Z,77.67
2019-01-25T08:35:21.859Z,83.67
2019-01-25T08:36:26.532Z,76.22
2019-01-25T08:37:31.240Z,67.67
2019-01-25T08:38:36.090Z,67.25
2019-01-25T08:39:40.836Z,73.52
2019-01-25T08:40:45.524Z,82.17
2019-01-25T08:41:50.357Z,71.80
2019-01-25T08:42:54.973Z,73.87
2019-01-25T08:43:59.666Z,78.30
2019-01-25T08:45:04.959Z,72.60
2019-01-25T08:46:09.758Z,78.75
2019-01-25T08:47:14.508Z,73.70
2019-01-25T08:48:19.181Z,75.67
2019-01-25T08:49:23.869Z,78.92
2019-01-25T08:50:30.906Z,80.77
2019-01-25T08:51:35.552Z,78.70
2019-01-25T08:52:40.609Z,69.35
2019-01-25T08:53:45.483Z,78.02
2019-01-25T08:54:52.872Z,76.15
2019-01-25T08:55:57.841Z,80.72
2019-01-25T08:57:02.847Z,91.15
2019-01-25T08:58:07.654Z,81.42
2019-01-25T08:59:12.490Z,72.08
2019-01-25T09:00:19.285Z,77.10
2019-01-25T09:01:24.093Z,77.55
2019-01-25T09:02:40.467Z,72.67
2019-01-25T09:03:49.101Z,73.55
2019-01-25T09:04:59.842Z,74.85
2019-01-25T09:06:10.868Z,73.25
2019-01-25T09:07:15.586Z,77.45
2019-01-25T09:08:22.567Z,72.10
2019-01-25T09:09:29.475Z,81.02
2019-01-25T09:10:37.822Z,75.40
2019-01-25T09:11:42.609Z,80.75
2019-01-25T09:12:47.388Z,79.05
2019-01-25T09:13:54.882Z,78.20
2019-01-25T09:14:59.805Z,72.58
2019-01-25T09:16:05.437Z,76.95
2019-01-25T09:17:10.186Z,74.87
2019-01-25T09:18:15.903Z,85.42
2019-01-25T09:19:20.787Z,111.85
2019-01-25T09:20:28.310Z,94.60
2019-01-25T09:21:33.037Z,75.95
2019-01-25T09:22:38.081Z,79.37
2019-01-25T09:23:42.887Z,72.70
2019-01-25T09:24:47.549Z,82.22
2019-01-25T09:25:52.136Z,89.32
2019-01-25T09:26:57.581Z,78.00
2019-01-25T09:28:02.542Z,84.83
2019-01-25T09:29:07.193Z,77.42
2019-01-25T09:30:14.713Z,78.33
2019-01-25T09:31:20.219Z,81.57
2019-01-25T09:32:24.979Z,82.05
2019-01-25T09:33:29.814Z,72.90
2019-01-25T09:34:35.808Z,86.02
2019-01-25T09:35:40.474Z,75.57
2019-01-25T09:36:45.092Z,78.33
2019-01-25T09:37:50.220Z,75.83
2019-01-25T09:38:54.932Z,73.07
2019-01-25T09:39:59.691Z,83.17
2019-01-25T09:41:04.441Z,73.33
2019-01-25T09:42:09.443Z,70.15
2019-01-25T09:43:14.115Z,73.65
2019-01-25T09:44:18.782Z,65.75
2019-01-25T09:45:23.654Z,71.50
2019-01-25T09:46:28.259Z,87.80
2019-01-25T09:47:32.906Z,108.77
2019-01-25T09:48:37.664Z,91.45
2019-01-25T09:49:42.425Z,74.22
2019-01-25T09:50:52.739Z,78.15
2019-01-25T09:51:53.490Z,82.75
2019-01-25T09:52:58.267Z,80.22
2019-01-25T09:54:02.986Z,75.80
2019-01-25T09:55:10.109Z,75.17
2019-01-25T09:56:14.791Z,78.80
2019-01-25T09:57:19.432Z,79.75
2019-01-25T09:58:24.864Z,84.50
2019-01-25T09:59:29.516Z,84.28
2019-01-25T10:00:38.030Z,79.27
2019-01-25T10:01:42.659Z,84.50
2019-01-25T10:02:47.580Z,104.32
2019-01-25T10:03:52.353Z,83.07
2019-01-25T10:04:57.006Z,81.00
2019-01-25T10:06:02.086Z,80.28
2019-01-25T10:07:06.931Z,92.10
2019-01-25T10:08:11.817Z,87.62
2019-01-25T10:09:16.518Z,70.10
2019-01-25T10:10:21.970Z,84.70
2019-01-25T10:11:26.599Z,72.75
2019-01-25T10:12:36.050Z,73.02
2019-01-25T10:13:37.820Z,64.60
2019-01-25T10:14:42.713Z,64.85
2019-01-25T10:15:47.641Z,68.45
2019-01-25T10:16:52.398Z,62.40
2019-01-25T10:17:57.293Z,70.47
2019-01-25T10:19:02.061Z,73.75
2019-01-25T10:20:07.565Z,68.60
2019-01-25T10:21:12.352Z,72.95
2019-01-25T10:22:17.059Z,72.05
2019-01-25T10:23:21.689Z,76.82
2019-01-25T10:24:26.382Z,71.45
2019-01-25T10:25:31.111Z,79.62
2019-01-25T10:26:35.866Z,80.10
2019-01-25T10:27:40.818Z,70.60
2019-01-25T10:28:45.667Z,69.27
2019-01-25T10:29:50.761Z,66.42
2019-01-25T10:30:55.438Z,79.27
2019-01-25T10:32:01.649Z,73.02
2019-01-25T10:33:06.575Z,59.42
2019-01-25T10:34:12.342Z,64.42
2019-01-25T10:35:17.114Z,61.13
2019-01-25T10:36:23.387Z,57.27
2019-01-25T10:37:28.019Z,61.50
2019-01-25T10:38:32.675Z,58.90
2019-01-25T10:39:37.254Z,59.67
2019-01-25T10:40:41.873Z,60.50
2019-01-25T10:41:46.582Z,53.25
2019-01-25T10:42:53.388Z,53.38
2019-01-25T10:43:57.862Z,53.25
2019-01-25T10:45:04.379Z,64.05
2019-01-25T10:46:09.045Z,53.80
2019-01-25T10:47:13.656Z,52.38
2019-01-25T10:48:18.287Z,52.20
2019-01-25T10:49:22.907Z,49.65
2019-01-25T10:50:28.090Z,57.93
2019-01-25T10:51:32.715Z,47.33
2019-01-25T10:52:37.287Z,54.53
2019-01-25T10:53:41.866Z,51.70
2019-01-25T10:54:48.124Z,49.90
2019-01-25T10:55:52.749Z,59.05
2019-01-25T10:56:57.402Z,87.50
2019-01-25T10:58:02.115Z,69.05
2019-01-25T10:59:06.743Z,111.28
2019-01-25T11:00:14.560Z,60.03
2019-01-25T11:01:19.179Z,53.63
2019-01-25T11:02:23.895Z,63.95
2019-01-25T11:03:28.935Z,49.70
2019-01-25T11:04:33.519Z,52.33
2019-01-25T11:05:39.214Z,47.40
2019-01-25T11:06:45.256Z,58.02
2019-01-25T11:07:50.177Z,47.80
2019-01-25T11:08:54.775Z,49.77
2019-01-25T11:09:59.529Z,46.58
2019-01-25T11:11:04.481Z,49.58
2019-01-25T11:12:09.231Z,46.02
2019-01-25T11:13:13.884Z,43.10
2019-01-25T11:14:18.852Z,44.25
2019-01-25T11:15:23.892Z,45.78
2019-01-25T11:16:28.585Z,42.15
2019-01-25T11:17:36.467Z,49.63
2019-01-25T11:18:39.683Z,42.05
2019-01-25T11:19:44.295Z,50.28
2019-01-25T11:20:49.035Z,46.50
2019-01-25T11:21:53.627Z,45.20
2019-01-25T11:22:58.247Z,45.33
2019-01-25T11:24:07.682Z,42.30
2019-01-25T11:25:12.581Z,45.30
2019-01-25T11:26:17.195Z,45.67
2019-01-25T11:27:21.898Z,46.85
2019-01-25T11:28:26.518Z,44.67
2019-01-25T11:29:31.084Z,44.85
2019-01-25T11:30:35.769Z,53.30
2019-01-25T11:31:41.377Z,43.65
2019-01-25T11:32:46.439Z,45.60
2019-01-25T11:33:51.075Z,47.38
2019-01-25T11:34:55.808Z,51.05
2019-01-25T11:36:00.715Z,41.33
2019-01-25T11:37:05.452Z,42.65
2019-01-25T11:38:10.232Z,43.10
2019-01-25T11:39:15.085Z,37.42
2019-01-25T11:40:22.290Z,42.95
2019-01-25T11:41:26.870Z,44.60
2019-01-25T11:42:31.529Z,38.13
2019-01-25T11:43:36.201Z,43.98
2019-01-25T11:44:40.806Z,39.03
2019-01-25T11:45:46.092Z,42.40
2019-01-25T11:46:50.663Z,38.08
2019-01-25T11:47:55.367Z,39.48
2019-01-25T11:48:59.957Z,41.00
2019-01-25T11:50:05.751Z,47.80
2019-01-25T11:51:10.483Z,38.10
2019-01-25T11:52:15.130Z,45.80
2019-01-25T11:53:19.757Z,41.37
2019-01-25T11:54:24.443Z,45.05
2019-01-25T11:55:29.000Z,44.88
2019-01-25T11:56:33.774Z,44.75
2019-01-25T11:57:38.405Z,44.33
2019-01-25T11:58:43.555Z,42.13
2019-01-25T11:59:48.272Z,46.33
2019-01-25T12:00:53.214Z,40.43
2019-01-25T12:01:57.822Z,44.48
2019-01-25T12:03:02.410Z,39.30
2019-01-25T12:04:07.600Z,43.08
2019-01-25T12:05:13.574Z,42.50
2019-01-25T12:06:18.265Z,39.65
2019-01-25T12:07:22.916Z,41.58
2019-01-25T12:08:27.602Z,39.42
2019-01-25T12:09:32.260Z,36.03
2019-01-25T12:10:37.005Z,40.55
2019-01-25T12:11:41.681Z,46.63
2019-01-25T12:12:46.367Z,39.30
2019-01-25T12:13:50.983Z,42.38
2019-01-25T12:14:55.810Z,36.42
2019-01-25T12:16:00.732Z,39.00
2019-01-25T12:17:05.426Z,35.90
2019-01-25T12:18:10.253Z,39.80
2019-01-25T12:19:14.840Z,38.45
2019-01-25T12:20:24.635Z,36.88
2019-01-25T12:21:29.368Z,41.48
2019-01-25T12:22:34.104Z,38.83
2019-01-25T12:23:38.856Z,39.83
2019-01-25T12:24:43.528Z,42.78
2019-01-25T12:25:48.120Z,38.80
2019-01-25T12:26:52.724Z,39.03
2019-01-25T12:27:57.657Z,38.78
2019-01-25T12:29:02.367Z,41.98
2019-01-25T12:30:12.408Z,40.63
2019-01-25T12:31:17.305Z,37.48
2019-01-25T12:32:22.429Z,45.78
2019-01-25T12:33:27.126Z,41.98
2019-01-25T12:34:31.706Z,45.33
2019-01-25T12:35:38.747Z,44.05
2019-01-25T12:36:43.314Z,41.50
2019-01-25T12:37:47.906Z,42.80
2019-01-25T12:38:52.566Z,43.45
2019-01-25T12:39:57.194Z,43.20
2019-01-25T12:41:01.846Z,39.48
2019-01-25T12:42:06.692Z,45.43
2019-01-25T12:43:11.586Z,45.25
2019-01-25T12:44:16.291Z,43.15
2019-01-25T12:45:22.925Z,44.95
2019-01-25T12:46:27.613Z,46.73
2019-01-25T12:47:32.226Z,44.80
2019-01-25T12:48:36.871Z,47.38
2019-01-25T12:49:41.470Z,48.02
2019-01-25T12:50:50.711Z,45.60
2019-01-25T12:52:01.551Z,50.05
2019-01-25T12:53:06.986Z,42.35
2019-01-25T12:54:11.666Z,43.38
2019-01-25T12:55:16.438Z,44.88
2019-01-25T12:56:21.103Z,50.88
2019-01-25T12:57:25.706Z,45.75
2019-01-25T12:58:30.980Z,44.67
2019-01-25T12:59:35.722Z,43.68
2019-01-25T13:00:41.971Z,49.67
2019-01-25T13:01:46.662Z,46.77
2019-01-25T13:02:51.597Z,46.23
2019-01-25T13:03:57.176Z,49.45
2019-01-25T13:05:02.977Z,46.73
2019-01-25T13:06:08.641Z,45.43
2019-01-25T13:07:13.458Z,46.40
2019-01-25T13:08:18.266Z,44.98
2019-01-25T13:09:23.097Z,49.95
2019-01-25T13:10:27.976Z,46.70
2019-01-25T13:11:32.559Z,48.55
2019-01-25T13:12:37.243Z,45.12
2019-01-25T13:13:41.934Z,45.33
2019-01-25T13:14:46.682Z,42.03
2019-01-25T13:15:51.470Z,50.80
2019-01-25T13:16:56.131Z,49.45
2019-01-25T13:18:01.057Z,50.58
2019-01-25T13:19:05.949Z,43.55
2019-01-25T13:20:14.368Z,46.18
2019-01-25T13:21:19.040Z,44.77
2019-01-25T13:22:23.730Z,47.73
2019-01-25T13:23:28.434Z,44.45
2019-01-25T13:24:33.130Z,46.48
2019-01-25T13:25:37.978Z,50.10
2019-01-25T13:26:45.618Z,48.28
2019-01-25T13:27:52.489Z,46.50
2019-01-25T13:28:57.260Z,43.13
2019-01-25T13:30:01.955Z,51.70
2019-01-25T13:31:06.950Z,48.20
2019-01-25T13:32:14.517Z,45.00
2019-01-25T13:33:18.144Z,45.63
2019-01-25T13:34:22.793Z,47.15
2019-01-25T13:35:27.554Z,48.95
2019-01-25T13:36:32.227Z,48.33
2019-01-25T13:37:36.937Z,48.78
2019-01-25T13:38:41.618Z,47.80
2019-01-25T13:39:46.429Z,46.63
2019-01-25T13:40:51.099Z,47.85
2019-01-25T13:41:55.860Z,47.70
2019-01-25T13:43:00.578Z,45.70
2019-01-25T13:44:05.409Z,46.48
2019-01-25T13:45:11.740Z,45.05
2019-01-25T13:46:16.368Z,55.40
2019-01-25T13:47:21.029Z,50.08
2019-01-25T13:48:26.689Z,49.90
2019-01-25T13:49:31.301Z,47.83
2019-01-25T13:50:35.925Z,48.10
2019-01-25T13:51:40.670Z,52.13
2019-01-25T13:52:45.555Z,47.58
2019-01-25T13:53:50.252Z,47.03
2019-01-25T13:54:55.052Z,65.97
2019-01-25T13:55:59.803Z,46.10
2019-01-25T13:57:05.447Z,53.80
2019-01-25T13:58:10.062Z,55.95
2019-01-25T13:59:14.643Z,51.73
2019-01-25T14:00:31.519Z,54.55
2019-01-25T14:01:36.128Z,51.28